sensor_id;sensor_type;location;lat;lon;timestamp;pressure;altitude;pressure_sealevel;temperature;humidity
71956;BME280;59829;50.562;6.258;2023-04-27T00:27:08;95963.63;;;3.47;76.06
71956;BME280;59829;50.562;6.258;2023-04-27T00:57:08;95951.25;;;3.58;78.00
71956;BME280;59829;50.562;6.258;2023-04-27T01:27:09;95935.41;;;3.54;79.79
71956;BME280;59829;50.562;6.258;2023-04-27T01:57:09;95944.88;;;3.51;81.47
71956;BME280;59829;50.562;6.258;2023-04-27T02:27:09;95936.75;;;3.27;82.89
71956;BME280;59829;50.562;6.258;2023-04-27T02:57:10;95922.53;;;3.24;84.45
71956;BME280;59829;50.562;6.258;2023-04-27T03:27:10;95930.59;;;3.32;86.03
71956;BME280;59829;50.562;6.258;2023-04-27T03:57:11;95930.59;;;2.98;86.46
71956;BME280;59829;50.562;6.258;2023-04-27T04:27:11;95944.06;;;2.62;87.61
71956;BME280;59829;50.562;6.258;2023-04-27T04:57:11;95963.88;;;2.53;89.39
71956;BME280;59829;50.562;6.258;2023-04-27T05:27:12;95974.69;;;2.92;90.72
71956;BME280;59829;50.562;6.258;2023-04-27T05:57:14;95998.06;;;3.68;91.91
71956;BME280;59829;50.562;6.258;2023-04-27T06:27:14;95985.47;;;4.64;92.25
71956;BME280;59829;50.562;6.258;2023-04-27T06:57:15;95993.16;;;5.40;91.03
71956;BME280;59829;50.562;6.258;2023-04-27T07:27:15;96007.28;;;6.04;88.20
71956;BME280;59829;50.562;6.258;2023-04-27T07:57:15;95989.19;;;6.65;85.30
71956;BME280;59829;50.562;6.258;2023-04-27T08:27:16;95974.97;;;7.42;82.64
71956;BME280;59829;50.562;6.258;2023-04-27T08:57:16;95961.97;;;8.10;80.07
71956;BME280;59829;50.562;6.258;2023-04-27T09:27:20;95966.91;;;8.63;76.78
71956;BME280;59829;50.562;6.258;2023-04-27T10:27:37;95917.09;;;10.09;71.60
71956;BME280;59829;50.562;6.258;2023-04-27T10:57:48;95913.56;;;10.54;69.35
71956;BME280;59829;50.562;6.258;2023-04-27T11:27:49;95875.66;;;11.12;67.53
71956;BME280;59829;50.562;6.258;2023-04-27T11:57:55;95859.25;;;11.87;65.84
71956;BME280;59829;50.562;6.258;2023-04-27T12:27:56;95840.69;;;12.14;64.09
71956;BME280;59829;50.562;6.258;2023-04-27T12:57:56;95863.94;;;13.01;62.83
71956;BME280;59829;50.562;6.258;2023-04-27T13:27:57;95839.13;;;13.48;61.29
71956;BME280;59829;50.562;6.258;2023-04-27T13:57:57;95804.69;;;14.24;60.39
71956;BME280;59829;50.562;6.258;2023-04-27T14:28:03;95781.63;;;14.67;59.01
71956;BME280;59829;50.562;6.258;2023-04-27T14:58:03;95745.16;;;14.80;57.22
71956;BME280;59829;50.562;6.258;2023-04-27T15:28:03;95738.78;;;14.92;56.01
71956;BME280;59829;50.562;6.258;2023-04-27T15:58:04;95733.50;;;15.20;55.59
71956;BME280;59829;50.562;6.258;2023-04-27T16:28:04;95699.91;;;14.86;54.92
71956;BME280;59829;50.562;6.258;2023-04-27T16:58:05;95667.63;;;14.02;55.37
71956;BME280;59829;50.562;6.258;2023-04-27T17:28:06;95665.22;;;13.18;56.01
71956;BME280;59829;50.562;6.258;2023-04-27T17:58:06;95653.75;;;12.47;56.96
71956;BME280;59829;50.562;6.258;2023-04-27T18:28:07;95666.06;;;11.95;57.72
71956;BME280;59829;50.562;6.258;2023-04-27T18:58:08;95646.25;;;11.47;58.58
71956;BME280;59829;50.562;6.258;2023-04-27T19:28:08;95687.44;;;11.15;59.03
71956;BME280;59829;50.562;6.258;2023-04-27T19:58:09;95689.66;;;10.99;59.71
71956;BME280;59829;50.562;6.258;2023-04-27T20:28:10;95665.44;;;10.82;60.56
71956;BME280;59829;50.562;6.258;2023-04-27T20:58:11;95628.06;;;10.58;61.88
71956;BME280;59829;50.562;6.258;2023-04-27T21:28:12;95603.63;;;10.45;63.66
71956;BME280;59829;50.562;6.258;2023-04-27T21:58:12;95577.09;;;10.25;65.35
71956;BME280;59829;50.562;6.258;2023-04-27T22:28:12;95546.16;;;10.17;66.76
71956;BME280;59829;50.562;6.258;2023-04-27T22:58:13;95513.00;;;10.15;68.66
71956;BME280;59829;50.562;6.258;2023-04-27T23:28:13;95486.66;;;9.73;70.24
71956;BME280;59829;50.562;6.258;2023-04-27T23:58:14;95452.56;;;9.52;73.10
